Pagrindinis puslapis
METAR-TAF:

METAR-TAF

Oro uostai :

Montego Bėjus, Jamaika

platuma: 18-30N, ilguma: 077-55W, Aukštis: 1 m

Dabartinis oras

Ataskaita buvo paskelbta 58 minutes, ne 02:00 UTC
Vėjas 11 kt iš Rytų/Pietryčių
Temperatūra 26°C
Drėgmė 74%
Slėgis 1016 hPa
Matomumas 10 km arba daugiau
Mažai debesys ne aukštis 2000 ft

METAR: MKJS 200200Z 11011KT 9999 FEW020 26/21 Q1016

Laikas: 21:58 (02:58 UTC)

Prognozė

Ataskaita buvo paskelbta 3 valandos ir 43 minutes, ne 23:15 UTC
Prognozė galioja nuo 20 metu 00 UTC su 20 metu 24 UTC
Vėjas 10 kt iš Rytų
Matomumas 10 km arba daugiau
Išsisklaidę debesys ne aukštis 2000 ft
Tapsmas
nuo 20 metu 14 UTC su 20 metu 16 UTC
Vėjas 18 kt iš Rytų/Šiaurės Rytų

TAF: MKJS 192315Z 2000/2024 10010KT 9999 SCT020 BECMG 2014/2016 07018KT

Orai ataskaitas ir orų prognozės (METAR, TAF).

turimą stotys yra geltonos ir raudonos taškus žemėlapyje.

Perkelti pele per norėdami pamatyti stoties vardą.

Tada spustelėkite, norėdami matyti oro stebėjimo ir prognozės.

Norėdami pakeisti žemėlapį: spustelėkite ant žalios mygtukų su juodo kryžiaus žemyn,; žalią mygtuką su brūkšneliu, jei norite nutolinti; arba žalių rodyklių gretimoms žemėlapius.


METAR-TAF: